createdAt,value
2019-06-26T00:00:36.669Z,91.10
2019-06-26T00:05:41.394Z,91.00
2019-06-26T00:10:45.935Z,91.70
2019-06-26T00:15:50.438Z,91.00
2019-06-26T00:20:55.084Z,91.20
2019-06-26T00:25:59.711Z,91.40
2019-06-26T00:31:04.269Z,91.80
2019-06-26T00:36:08.834Z,91.20
2019-06-26T00:41:13.342Z,91.60
2019-06-26T00:46:17.985Z,92.10
2019-06-26T00:51:22.546Z,91.30
2019-06-26T00:56:27.220Z,91.10
2019-06-26T01:01:31.840Z,91.60
2019-06-26T01:06:45.371Z,91.60
2019-06-26T01:11:49.868Z,91.60
2019-06-26T01:16:54.540Z,91.70
2019-06-26T01:21:59.167Z,91.50
2019-06-26T01:27:03.801Z,91.70
2019-06-26T01:32:08.237Z,91.90
2019-06-26T01:37:12.733Z,91.70
2019-06-26T01:42:17.157Z,92.50
2019-06-26T01:47:21.732Z,92.10
2019-06-26T01:52:26.322Z,91.40
2019-06-26T01:57:30.856Z,91.70
2019-06-26T02:02:35.286Z,91.40
2019-06-26T02:07:40.004Z,92.30
2019-06-26T02:12:44.594Z,92.00
2019-06-26T02:17:49.161Z,92.00
2019-06-26T02:22:53.729Z,92.40
2019-06-26T02:27:58.219Z,92.40
2019-06-26T02:33:02.641Z,92.10
2019-06-26T02:38:07.138Z,92.30
2019-06-26T02:43:11.768Z,92.80
2019-06-26T02:48:16.400Z,92.50
2019-06-26T02:53:20.883Z,93.10
2019-06-26T02:58:25.521Z,92.50
2019-06-26T03:03:30.616Z,93.00
2019-06-26T03:08:35.033Z,92.50
2019-06-26T03:13:39.589Z,92.60
2019-06-26T03:18:44.171Z,92.90
2019-06-26T03:23:48.705Z,93.00
2019-06-26T03:28:53.347Z,93.00
2019-06-26T03:33:57.914Z,92.70
2019-06-26T03:39:02.313Z,93.00
2019-06-26T03:44:06.794Z,92.50
2019-06-26T03:49:11.279Z,92.50
2019-06-26T03:54:16.439Z,92.70
2019-06-26T03:59:20.997Z,92.70
2019-06-26T04:04:25.569Z,92.70
2019-06-26T04:09:30.041Z,92.20
2019-06-26T04:14:34.523Z,93.00
2019-06-26T04:19:39.359Z,91.70
2019-06-26T04:24:43.849Z,92.60
2019-06-26T04:29:48.423Z,92.90
2019-06-26T04:34:54.561Z,93.50
2019-06-26T04:39:59.204Z,94.20
2019-06-26T04:45:05.461Z,94.10
2019-06-26T04:50:11.769Z,93.60
2019-06-26T04:55:16.380Z,94.50
2019-06-26T05:00:21.986Z,94.60
2019-06-26T05:05:38.879Z,95.50
2019-06-26T05:10:32.793Z,95.10
2019-06-26T05:15:37.472Z,94.90
2019-06-26T05:20:42.050Z,94.80
2019-06-26T05:25:46.501Z,94.40
2019-06-26T05:30:51.005Z,93.10
2019-06-26T05:35:55.662Z,92.80
2019-06-26T05:41:00.149Z,91.00
2019-06-26T05:46:04.854Z,87.90
2019-06-26T05:51:09.442Z,86.80
2019-06-26T05:56:13.962Z,86.10
2019-06-26T06:01:18.518Z,85.50
2019-06-26T06:06:23.093Z,84.60
2019-06-26T06:11:27.571Z,84.30
2019-06-26T06:16:46.426Z,84.40
2019-06-26T06:21:38.462Z,83.10
2019-06-26T06:26:42.864Z,83.40
2019-06-26T06:31:47.355Z,82.40
2019-06-26T06:36:51.919Z,81.50
2019-06-26T06:41:56.364Z,80.80
2019-06-26T06:47:04.285Z,80.40
2019-06-26T06:52:07.294Z,80.10
2019-06-26T06:57:11.780Z,79.60
2019-06-26T07:02:16.362Z,79.20
2019-06-26T07:07:20.975Z,78.90
2019-06-26T07:12:25.763Z,79.20
2019-06-26T07:17:30.409Z,80.30
2019-06-26T07:22:35.027Z,77.50
2019-06-26T07:27:39.595Z,77.50
2019-06-26T07:32:44.226Z,78.80
2019-06-26T07:37:48.707Z,77.60
2019-06-26T07:42:53.288Z,76.80
2019-06-26T07:47:57.689Z,76.50
2019-06-26T07:53:02.274Z,75.20
2019-06-26T07:58:06.959Z,74.40
2019-06-26T08:03:11.438Z,73.50
2019-06-26T08:08:15.920Z,74.10
2019-06-26T08:13:20.344Z,71.30
2019-06-26T08:18:24.897Z,71.50
2019-06-26T08:23:29.525Z,69.80
2019-06-26T08:28:33.942Z,70.10
2019-06-26T08:33:38.505Z,69.30
2019-06-26T08:38:42.924Z,70.60
2019-06-26T08:43:47.745Z,68.40
2019-06-26T08:48:53.157Z,67.60
2019-06-26T08:53:57.709Z,67.80
2019-06-26T08:59:02.264Z,68.00
2019-06-26T09:04:06.901Z,66.50
2019-06-26T09:09:11.373Z,67.10
2019-06-26T09:14:16.005Z,68.40
2019-06-26T09:19:20.639Z,68.30
2019-06-26T09:24:25.044Z,70.10
2019-06-26T09:29:31.334Z,68.70
2019-06-26T09:34:35.907Z,69.30
2019-06-26T09:39:40.341Z,67.60
2019-06-26T09:44:44.912Z,67.40
2019-06-26T09:49:52.759Z,68.50
2019-06-26T09:54:57.365Z,69.50
2019-06-26T10:00:01.958Z,69.30
2019-06-26T10:05:10.266Z,69.20
2019-06-26T10:10:16.574Z,69.50
2019-06-26T10:15:21.264Z,69.90
2019-06-26T10:20:25.903Z,68.10
2019-06-26T10:25:30.433Z,67.80
2019-06-26T10:30:35.032Z,67.60
2019-06-26T10:35:39.462Z,65.60
2019-06-26T10:40:44.034Z,67.10
2019-06-26T10:45:48.634Z,65.50
2019-06-26T10:50:58.555Z,65.90
2019-06-26T10:55:59.492Z,64.00
2019-06-26T11:01:04.124Z,64.40
2019-06-26T11:06:08.737Z,64.10
2019-06-26T11:11:13.226Z,65.60
2019-06-26T11:16:17.862Z,62.50
2019-06-26T11:21:22.410Z,61.90
2019-06-26T11:26:26.973Z,62.00
2019-06-26T11:31:31.445Z,62.80
2019-06-26T11:36:36.015Z,61.30
2019-06-26T11:41:40.992Z,61.80
2019-06-26T11:46:45.501Z,61.70
2019-06-26T11:51:51.588Z,61.00
2019-06-26T11:56:56.221Z,60.40
2019-06-26T12:02:00.688Z,61.00
2019-06-26T12:07:05.358Z,60.40
2019-06-26T12:12:09.936Z,62.00
2019-06-26T12:17:14.407Z,62.00
2019-06-26T12:22:19.033Z,63.50
2019-06-26T12:27:23.550Z,62.50
2019-06-26T12:32:28.112Z,62.90
2019-06-26T12:37:37.670Z,62.70
2019-06-26T12:42:39.018Z,63.00
2019-06-26T12:47:43.550Z,62.00
2019-06-26T12:52:48.181Z,61.40
2019-06-26T12:57:52.767Z,63.10
2019-06-26T13:02:57.274Z,64.20
2019-06-26T13:08:01.822Z,64.90
2019-06-26T13:13:06.494Z,61.90
2019-06-26T13:18:11.388Z,61.40
2019-06-26T13:23:16.171Z,62.10
2019-06-26T13:28:20.708Z,64.70
2019-06-26T13:33:25.147Z,60.70
2019-06-26T13:38:29.772Z,61.30
2019-06-26T13:43:34.409Z,61.20
2019-06-26T13:48:38.889Z,56.60
2019-06-26T13:53:43.508Z,59.50
2019-06-26T13:58:48.031Z,61.00
2019-06-26T14:03:52.586Z,65.10
2019-06-26T14:08:57.202Z,59.90
2019-06-26T14:14:01.856Z,61.20
2019-06-26T14:19:06.561Z,60.30
2019-06-26T14:24:11.044Z,58.40
2019-06-26T14:29:20.815Z,60.90
2019-06-26T14:34:21.739Z,59.50
2019-06-26T14:39:26.299Z,58.90
2019-06-26T14:44:30.850Z,60.00
2019-06-26T14:49:36.400Z,60.80
2019-06-26T14:54:40.785Z,58.70
2019-06-26T14:59:45.269Z,59.80
2019-06-26T15:04:50.944Z,60.70
2019-06-26T15:09:55.409Z,58.90
2019-06-26T15:15:00.046Z,59.40
2019-06-26T15:20:05.687Z,62.40
2019-06-26T15:25:10.626Z,63.60
2019-06-26T15:30:17.106Z,61.90
2019-06-26T15:35:22.012Z,63.40
2019-06-26T15:40:26.501Z,63.50
2019-06-26T15:45:31.082Z,61.70
2019-06-26T15:50:35.878Z,63.80
2019-06-26T15:55:40.916Z,63.70
2019-06-26T16:00:47.064Z,63.60
2019-06-26T16:05:51.537Z,65.90
2019-06-26T16:10:56.073Z,65.40
2019-06-26T16:16:00.493Z,66.10
2019-06-26T16:21:05.129Z,65.70
2019-06-26T16:26:09.614Z,66.30
2019-06-26T16:31:14.102Z,65.80
2019-06-26T16:36:18.676Z,67.40
2019-06-26T16:41:23.160Z,67.60
2019-06-26T16:46:27.791Z,65.80
2019-06-26T16:51:32.366Z,68.40
2019-06-26T16:56:37.883Z,69.30
2019-06-26T17:01:42.369Z,69.80
2019-06-26T17:06:46.870Z,70.60
2019-06-26T17:11:51.528Z,67.80
2019-06-26T17:16:58.255Z,69.60
2019-06-26T17:22:02.750Z,70.70
2019-06-26T17:27:08.503Z,70.20
2019-06-26T17:32:12.969Z,71.00
2019-06-26T17:37:17.507Z,73.20
2019-06-26T17:42:22.074Z,73.10
2019-06-26T17:47:26.561Z,74.10
2019-06-26T17:52:35.623Z,73.50
2019-06-26T17:57:38.289Z,73.60
2019-06-26T18:02:43.337Z,73.60
2019-06-26T18:07:47.982Z,74.80
2019-06-26T18:12:52.500Z,75.00
2019-06-26T18:17:57.136Z,76.00
2019-06-26T18:23:07.483Z,76.40
2019-06-26T18:28:08.942Z,76.80
2019-06-26T18:33:14.710Z,77.60
2019-06-26T18:38:19.161Z,75.50
2019-06-26T18:43:23.657Z,75.90
2019-06-26T18:48:28.146Z,76.40
2019-06-26T18:53:32.778Z,75.40
2019-06-26T18:58:37.455Z,76.00
2019-06-26T19:03:41.890Z,77.00
2019-06-26T19:08:46.415Z,77.00
2019-06-26T19:13:51.330Z,77.40
2019-06-26T19:18:57.203Z,77.90
2019-06-26T19:24:10.098Z,77.50
2019-06-26T19:29:08.122Z,77.20
2019-06-26T19:34:12.606Z,77.90
2019-06-26T19:39:20.546Z,77.50
2019-06-26T19:44:23.629Z,77.40
2019-06-26T19:49:28.251Z,79.40
2019-06-26T19:54:32.730Z,79.40
2019-06-26T19:59:37.705Z,80.60
2019-06-26T20:04:42.184Z,80.60
2019-06-26T20:09:46.597Z,80.00
2019-06-26T20:14:51.039Z,79.90
2019-06-26T20:19:55.609Z,80.10
2019-06-26T20:25:00.280Z,80.50
2019-06-26T20:30:09.603Z,80.10
2019-06-26T20:35:12.566Z,80.70
2019-06-26T20:40:17.296Z,80.60
2019-06-26T20:45:21.804Z,80.30
2019-06-26T20:50:26.203Z,80.80
2019-06-26T20:55:30.763Z,81.20
2019-06-26T21:00:35.328Z,80.70
2019-06-26T21:05:39.843Z,81.40
2019-06-26T21:10:44.389Z,81.30
2019-06-26T21:15:48.845Z,80.70
2019-06-26T21:20:53.387Z,80.80
2019-06-26T21:25:57.849Z,81.00
2019-06-26T21:31:02.473Z,81.90
2019-06-26T21:36:07.207Z,81.70
2019-06-26T21:41:11.908Z,81.40
2019-06-26T21:46:16.337Z,80.90
2019-06-26T21:51:20.895Z,81.30
2019-06-26T21:56:25.676Z,81.80
2019-06-26T22:01:30.673Z,80.30
2019-06-26T22:06:35.992Z,80.40
2019-06-26T22:11:40.601Z,79.70
2019-06-26T22:16:45.159Z,81.20
2019-06-26T22:21:49.782Z,80.80
2019-06-26T22:26:54.349Z,80.60
2019-06-26T22:31:58.926Z,79.70
2019-06-26T22:37:03.492Z,80.70
2019-06-26T22:42:07.983Z,81.20
2019-06-26T22:47:12.540Z,81.80
2019-06-26T22:52:17.102Z,81.70
2019-06-26T22:57:21.654Z,82.40
2019-06-26T23:02:26.087Z,81.60
2019-06-26T23:07:30.520Z,82.30
2019-06-26T23:12:35.077Z,82.10
2019-06-26T23:17:39.590Z,82.70
2019-06-26T23:22:44.153Z,82.90
2019-06-26T23:27:48.655Z,82.80
2019-06-26T23:32:53.142Z,82.90
2019-06-26T23:37:57.588Z,83.40
2019-06-26T23:43:02.105Z,83.20
2019-06-26T23:48:06.612Z,83.20
2019-06-26T23:53:11.111Z,82.60
2019-06-26T23:58:15.682Z,83.00
